createdAt,value
2019-02-28T00:00:47.666Z,237.37
2019-02-28T00:01:55.939Z,211.03
2019-02-28T00:03:04.225Z,291.23
2019-02-28T00:04:12.332Z,277.47
2019-02-28T00:05:20.444Z,207.87
2019-02-28T00:06:28.674Z,210.93
2019-02-28T00:07:37.071Z,246.53
2019-02-28T00:08:45.194Z,237.83
2019-02-28T00:09:57.399Z,247.83
2019-02-28T00:11:05.032Z,300.67
2019-02-28T00:12:14.424Z,293.93
2019-02-28T00:13:22.907Z,202.23
2019-02-28T00:14:31.196Z,203.33
2019-02-28T00:15:39.579Z,205.43
2019-02-28T00:16:47.410Z,211.97
2019-02-28T00:17:55.738Z,205.70
2019-02-28T00:19:03.884Z,257.00
2019-02-28T00:20:11.954Z,252.13
2019-02-28T00:21:20.404Z,222.03
2019-02-28T00:22:28.545Z,202.20
2019-02-28T00:23:38.000Z,200.73
2019-02-28T00:24:45.991Z,231.73
2019-02-28T00:25:54.003Z,199.90
2019-02-28T00:27:02.297Z,253.57
2019-02-28T00:28:10.584Z,240.60
2019-02-28T00:29:18.799Z,203.47
2019-02-28T00:30:26.866Z,176.57
2019-02-28T00:31:34.845Z,199.30
2019-02-28T00:32:42.837Z,240.47
2019-02-28T00:33:50.808Z,227.17
2019-02-28T00:34:58.924Z,222.10
2019-02-28T00:36:07.066Z,268.83
2019-02-28T00:37:15.162Z,295.83
2019-02-28T00:38:23.362Z,228.67
2019-02-28T00:39:34.740Z,234.10
2019-02-28T00:40:40.966Z,259.97
2019-02-28T00:41:48.987Z,258.90
2019-02-28T00:42:57.190Z,259.13
2019-02-28T00:44:05.601Z,310.97
2019-02-28T00:45:15.425Z,324.83
2019-02-28T00:46:23.623Z,260.53
2019-02-28T00:47:31.825Z,249.10
2019-02-28T00:48:40.128Z,256.03
2019-02-28T00:49:48.012Z,259.10
2019-02-28T00:50:58.466Z,264.37
2019-02-28T00:52:05.758Z,313.27
2019-02-28T00:53:13.680Z,322.70
2019-02-28T00:54:25.742Z,255.60
2019-02-28T00:55:33.723Z,261.37
2019-02-28T00:56:41.825Z,267.77
2019-02-28T00:57:50.120Z,260.37
2019-02-28T00:59:00.506Z,237.83
2019-02-28T01:00:14.693Z,318.27
2019-02-28T01:01:22.827Z,243.17
2019-02-28T01:02:31.009Z,251.43
2019-02-28T01:03:39.370Z,220.53
2019-02-28T01:04:47.270Z,207.90
2019-02-28T01:05:55.525Z,222.87
2019-02-28T01:07:03.505Z,246.83
2019-02-28T01:08:11.578Z,307.87
2019-02-28T01:09:19.663Z,257.43
2019-02-28T01:10:27.848Z,180.77
2019-02-28T01:11:35.994Z,183.97
2019-02-28T01:12:44.010Z,184.73
2019-02-28T01:13:52.184Z,180.53
2019-02-28T01:15:00.316Z,152.03
2019-02-28T01:16:08.374Z,259.67
2019-02-28T01:17:16.872Z,252.63
2019-02-28T01:18:25.202Z,158.00
2019-02-28T01:19:33.360Z,130.30
2019-02-28T01:20:41.969Z,168.43
2019-02-28T01:21:49.973Z,147.30
2019-02-28T01:22:58.528Z,164.30
2019-02-28T01:24:07.384Z,209.87
2019-02-28T01:25:18.143Z,238.40
2019-02-28T01:26:26.251Z,192.27
2019-02-28T01:27:34.378Z,211.80
2019-02-28T01:28:43.010Z,214.07
2019-02-28T01:29:51.174Z,245.73
2019-02-28T01:30:59.287Z,258.17
2019-02-28T01:32:07.198Z,308.47
2019-02-28T01:33:15.071Z,317.37
2019-02-28T01:34:23.158Z,259.27
2019-02-28T01:35:31.072Z,246.80
2019-02-28T01:36:39.371Z,253.67
2019-02-28T01:37:47.282Z,250.27
2019-02-28T01:38:57.823Z,254.87
2019-02-28T01:40:08.054Z,286.37
2019-02-28T01:41:15.982Z,309.80
2019-02-28T01:42:23.967Z,230.27
2019-02-28T01:43:32.226Z,225.37
2019-02-28T01:44:40.670Z,240.43
2019-02-28T01:45:48.916Z,228.17
2019-02-28T01:46:56.964Z,178.50
2019-02-28T01:48:05.139Z,227.87
2019-02-28T01:49:13.002Z,260.30
2019-02-28T01:50:21.142Z,240.30
2019-02-28T01:51:35.700Z,217.00
2019-02-28T01:52:44.415Z,223.00
2019-02-28T01:53:50.470Z,259.13
2019-02-28T01:54:59.181Z,183.60
2019-02-28T01:56:07.267Z,240.47
2019-02-28T01:57:15.195Z,297.73
2019-02-28T01:58:23.545Z,237.03
2019-02-28T01:59:31.807Z,200.83
2019-02-28T02:00:40.179Z,190.53
2019-02-28T02:01:48.434Z,169.07
2019-02-28T02:02:56.864Z,176.27
2019-02-28T02:04:04.949Z,166.23
2019-02-28T02:05:13.269Z,208.27
2019-02-28T02:06:22.591Z,214.87
2019-02-28T02:07:33.353Z,193.90
2019-02-28T02:08:41.671Z,204.63
2019-02-28T02:09:50.437Z,223.07
2019-02-28T02:10:58.775Z,240.73
2019-02-28T02:12:06.897Z,278.77
2019-02-28T02:13:15.245Z,308.17
2019-02-28T02:14:23.345Z,295.67
2019-02-28T02:15:31.944Z,258.50
2019-02-28T02:16:40.239Z,253.87
2019-02-28T02:17:48.753Z,250.93
2019-02-28T02:18:56.961Z,274.03
2019-02-28T02:20:11.258Z,264.57
2019-02-28T02:21:19.796Z,313.03
2019-02-28T02:22:27.881Z,263.47
2019-02-28T02:23:35.782Z,262.30
2019-02-28T02:24:44.188Z,255.30
2019-02-28T02:25:52.295Z,242.60
2019-02-28T02:27:00.519Z,255.87
2019-02-28T02:28:08.600Z,280.60
2019-02-28T02:29:16.693Z,313.03
2019-02-28T02:30:25.868Z,291.97
2019-02-28T02:31:34.114Z,245.20
2019-02-28T02:32:42.367Z,245.83
2019-02-28T02:33:52.425Z,248.10
2019-02-28T02:35:05.806Z,257.50
2019-02-28T02:36:10.075Z,300.07
2019-02-28T02:37:18.029Z,308.47
2019-02-28T02:38:26.044Z,276.93
2019-02-28T02:39:34.011Z,202.73
2019-02-28T02:40:42.009Z,224.07
2019-02-28T02:41:50.474Z,251.47
2019-02-28T02:42:58.476Z,251.10
2019-02-28T02:44:06.648Z,257.20
2019-02-28T02:45:16.235Z,316.60
2019-02-28T02:46:24.290Z,320.27
2019-02-28T02:47:32.648Z,234.07
2019-02-28T02:48:42.289Z,204.07
2019-02-28T02:49:56.120Z,230.97
2019-02-28T02:51:00.481Z,225.00
2019-02-28T02:52:08.438Z,247.40
2019-02-28T02:53:16.549Z,283.20
2019-02-28T02:54:24.552Z,263.03
2019-02-28T02:55:32.855Z,232.97
2019-02-28T02:56:42.063Z,269.23
2019-02-28T02:57:51.900Z,177.23
2019-02-28T02:59:02.120Z,167.47
2019-02-28T03:00:16.250Z,203.70
2019-02-28T03:01:24.690Z,269.50
2019-02-28T03:02:33.138Z,200.70
2019-02-28T03:03:44.235Z,187.80
2019-02-28T03:04:58.020Z,157.70
2019-02-28T03:06:01.918Z,149.50
2019-02-28T03:07:10.401Z,198.83
2019-02-28T03:08:18.509Z,275.07
2019-02-28T03:09:26.602Z,236.40
2019-02-28T03:10:34.794Z,171.63
2019-02-28T03:11:42.989Z,178.93
2019-02-28T03:12:51.423Z,154.07
2019-02-28T03:13:59.700Z,135.50
2019-02-28T03:15:13.542Z,140.77
2019-02-28T03:16:21.810Z,190.40
2019-02-28T03:17:30.322Z,93.07
2019-02-28T03:18:38.699Z,96.27
2019-02-28T03:19:46.960Z,75.50
2019-02-28T03:20:55.600Z,80.07
2019-02-28T03:22:03.685Z,56.07
2019-02-28T03:23:11.868Z,103.90
2019-02-28T03:24:19.999Z,147.60
2019-02-28T03:25:29.010Z,119.07
2019-02-28T03:26:41.363Z,108.27
2019-02-28T03:27:46.769Z,116.57
2019-02-28T03:28:55.255Z,119.83
2019-02-28T03:30:03.323Z,156.37
2019-02-28T03:31:14.710Z,184.50
2019-02-28T03:32:21.143Z,224.73
2019-02-28T03:33:29.324Z,257.37
2019-02-28T03:34:37.438Z,124.70
2019-02-28T03:35:45.378Z,202.27
2019-02-28T03:36:57.001Z,219.43
2019-02-28T03:38:10.639Z,220.80
2019-02-28T03:39:13.035Z,279.47
2019-02-28T03:40:21.302Z,208.70
2019-02-28T03:41:29.492Z,181.13
2019-02-28T03:42:37.515Z,123.47
2019-02-28T03:43:45.779Z,138.90
2019-02-28T03:44:57.128Z,146.07
2019-02-28T03:46:06.394Z,160.27
2019-02-28T03:47:13.381Z,270.00
2019-02-28T03:48:21.585Z,243.40
2019-02-28T03:49:29.734Z,163.07
2019-02-28T03:50:37.698Z,225.00
2019-02-28T03:51:45.954Z,158.60
2019-02-28T03:52:54.463Z,129.10
2019-02-28T03:54:02.588Z,130.43
2019-02-28T03:55:13.802Z,122.30
2019-02-28T03:56:22.105Z,225.80
2019-02-28T03:57:30.132Z,263.50
2019-02-28T03:58:42.873Z,94.50
2019-02-28T03:59:55.366Z,100.20
2019-02-28T04:00:58.059Z,111.63
2019-02-28T04:02:06.326Z,143.10
2019-02-28T04:03:14.377Z,191.77
2019-02-28T04:04:22.463Z,198.53
2019-02-28T04:05:30.650Z,65.83
2019-02-28T04:06:40.713Z,62.87
2019-02-28T04:07:52.920Z,30.27
2019-02-28T04:09:07.332Z,23.10
2019-02-28T04:10:11.450Z,20.97
2019-02-28T04:11:19.485Z,117.33
2019-02-28T04:12:27.662Z,126.20
2019-02-28T04:13:35.778Z,31.37
2019-02-28T04:14:43.977Z,33.83
2019-02-28T04:16:07.787Z,42.33
2019-02-28T04:17:02.317Z,135.63
2019-02-28T04:18:10.503Z,38.33
2019-02-28T04:19:22.668Z,82.67
2019-02-28T04:20:35.909Z,81.80
2019-02-28T04:21:38.123Z,20.13
2019-02-28T04:22:46.165Z,22.77
2019-02-28T04:23:54.492Z,22.30
2019-02-28T04:25:02.666Z,12.73
2019-02-28T04:26:10.685Z,17.77
2019-02-28T04:27:18.740Z,77.50
2019-02-28T04:28:26.923Z,86.10
2019-02-28T04:29:35.175Z,22.33
2019-02-28T04:30:44.094Z,19.43
2019-02-28T04:31:52.575Z,15.83
2019-02-28T04:33:02.359Z,18.17
2019-02-28T04:34:13.478Z,29.40
2019-02-28T04:35:24.301Z,98.50
2019-02-28T04:36:35.499Z,77.17
2019-02-28T04:37:44.910Z,59.70
2019-02-28T04:38:51.696Z,70.83
2019-02-28T04:40:00.238Z,35.83
2019-02-28T04:41:08.337Z,33.00
2019-02-28T04:42:16.425Z,145.83
2019-02-28T04:43:24.730Z,152.17
2019-02-28T04:44:32.791Z,111.90
2019-02-28T04:45:41.268Z,132.13
2019-02-28T04:46:49.768Z,108.70
2019-02-28T04:47:58.236Z,115.37
2019-02-28T04:49:06.407Z,101.83
2019-02-28T04:50:14.983Z,155.23
2019-02-28T04:51:23.213Z,271.97
2019-02-28T04:52:31.415Z,112.67
2019-02-28T04:53:40.043Z,115.53
2019-02-28T04:54:48.369Z,124.83
2019-02-28T04:55:56.541Z,118.13
2019-02-28T04:57:04.747Z,140.60
2019-02-28T04:58:12.819Z,202.50
2019-02-28T04:59:20.945Z,195.50
2019-02-28T05:00:28.990Z,193.33
2019-02-28T05:01:37.048Z,141.73
2019-02-28T05:02:45.242Z,151.73
2019-02-28T05:03:53.425Z,127.73
2019-02-28T05:05:01.539Z,193.40
2019-02-28T05:06:09.637Z,119.03
2019-02-28T05:07:17.565Z,224.27
2019-02-28T05:08:25.709Z,224.47
2019-02-28T05:09:33.657Z,116.87
2019-02-28T05:10:41.637Z,110.47
2019-02-28T05:11:50.105Z,129.07
2019-02-28T05:12:58.751Z,154.07
2019-02-28T05:14:07.186Z,129.97
2019-02-28T05:15:16.416Z,199.63
2019-02-28T05:16:24.456Z,245.70
2019-02-28T05:17:32.650Z,224.97
2019-02-28T05:18:40.748Z,225.47
2019-02-28T05:19:48.823Z,249.37
2019-02-28T05:20:57.332Z,168.73
2019-02-28T05:22:05.329Z,147.97
2019-02-28T05:23:14.291Z,173.23
2019-02-28T05:24:22.399Z,286.07
2019-02-28T05:25:30.617Z,252.97
2019-02-28T05:26:38.603Z,162.27
2019-02-28T05:27:46.775Z,154.20
2019-02-28T05:28:55.202Z,163.63
2019-02-28T05:30:03.777Z,177.73
2019-02-28T05:31:11.902Z,188.30
2019-02-28T05:32:20.000Z,284.20
2019-02-28T05:33:28.358Z,286.57
2019-02-28T05:34:36.369Z,150.20
2019-02-28T05:35:44.557Z,168.10
2019-02-28T05:36:52.669Z,218.30
2019-02-28T05:38:01.383Z,135.50
2019-02-28T05:39:09.503Z,131.03
2019-02-28T05:40:18.271Z,242.97
2019-02-28T05:41:26.788Z,252.30
2019-02-28T05:42:34.983Z,187.50
2019-02-28T05:43:43.197Z,222.53
2019-02-28T05:44:51.412Z,143.03
2019-02-28T05:46:00.372Z,62.80
2019-02-28T05:47:08.635Z,63.10
2019-02-28T05:48:16.870Z,77.93
2019-02-28T05:49:25.589Z,84.60
2019-02-28T05:50:33.782Z,80.67
2019-02-28T05:51:42.226Z,79.93
2019-02-28T05:52:50.362Z,76.13
2019-02-28T05:53:58.650Z,108.67
2019-02-28T05:55:09.433Z,116.37
2019-02-28T05:56:17.750Z,159.23
2019-02-28T05:57:26.620Z,195.87
2019-02-28T05:58:35.146Z,218.77
2019-02-28T05:59:43.614Z,117.17
2019-02-28T06:00:52.006Z,139.73
2019-02-28T06:02:00.327Z,186.37
2019-02-28T06:03:08.743Z,172.67
2019-02-28T06:04:16.768Z,222.40
2019-02-28T06:05:25.260Z,234.57
2019-02-28T06:06:33.184Z,171.83
2019-02-28T06:07:41.463Z,136.57
2019-02-28T06:08:49.427Z,143.93
2019-02-28T06:09:57.898Z,140.60
2019-02-28T06:11:06.152Z,187.67
2019-02-28T06:12:14.437Z,208.47
2019-02-28T06:13:22.741Z,310.17
2019-02-28T06:14:31.529Z,330.37
2019-02-28T06:15:39.731Z,195.77
2019-02-28T06:16:48.447Z,203.37
2019-02-28T06:17:56.863Z,205.80
2019-02-28T06:19:08.360Z,211.17
2019-02-28T06:20:16.898Z,240.73
2019-02-28T06:21:26.586Z,317.60
2019-02-28T06:22:36.315Z,275.30
2019-02-28T06:23:45.586Z,255.13
2019-02-28T06:24:53.878Z,247.83
2019-02-28T06:26:02.231Z,195.20
2019-02-28T06:27:10.646Z,156.17
2019-02-28T06:28:19.040Z,149.57
2019-02-28T06:29:27.152Z,148.80
2019-02-28T06:30:35.443Z,109.00
2019-02-28T06:31:45.478Z,69.23
2019-02-28T06:32:57.866Z,71.73
2019-02-28T06:34:05.681Z,86.63
2019-02-28T06:35:17.651Z,108.10
2019-02-28T06:36:25.687Z,183.03
2019-02-28T06:37:35.389Z,171.37
2019-02-28T06:38:43.364Z,150.30
2019-02-28T06:39:51.908Z,139.10
2019-02-28T06:41:00.242Z,130.63
2019-02-28T06:42:11.848Z,149.63
2019-02-28T06:43:19.489Z,138.43
2019-02-28T06:44:27.867Z,166.20
2019-02-28T06:45:37.625Z,113.10
2019-02-28T06:46:50.031Z,85.27
2019-02-28T06:48:00.792Z,104.77
2019-02-28T06:49:10.679Z,100.47
2019-02-28T06:50:20.733Z,187.43
2019-02-28T06:51:32.106Z,167.57
2019-02-28T06:52:46.429Z,65.87
2019-02-28T06:53:59.536Z,103.70
2019-02-28T06:55:19.281Z,58.90
2019-02-28T06:56:30.827Z,25.47
2019-02-28T06:57:39.178Z,158.90
2019-02-28T06:58:47.554Z,183.10
2019-02-28T06:59:55.816Z,116.40
2019-02-28T07:01:04.298Z,101.00
2019-02-28T07:02:12.538Z,145.27
2019-02-28T07:03:20.800Z,188.50
2019-02-28T07:04:29.112Z,139.67
2019-02-28T07:05:37.349Z,187.80
2019-02-28T07:06:45.338Z,225.93
2019-02-28T07:07:54.761Z,132.20
2019-02-28T07:09:03.154Z,115.57
2019-02-28T07:10:17.371Z,123.97
2019-02-28T07:11:25.414Z,128.67
2019-02-28T07:12:33.787Z,164.67
2019-02-28T07:13:42.211Z,267.50
2019-02-28T07:14:50.612Z,203.57
2019-02-28T07:15:59.835Z,160.93
2019-02-28T07:17:10.761Z,152.67
2019-02-28T07:18:19.849Z,64.77
2019-02-28T07:19:28.179Z,37.63
2019-02-28T07:20:36.701Z,77.53
2019-02-28T07:21:44.954Z,101.87
2019-02-28T07:22:55.598Z,38.00
2019-02-28T07:24:03.787Z,20.07
2019-02-28T07:25:13.931Z,20.63
2019-02-28T07:26:21.992Z,14.47
2019-02-28T07:27:30.051Z,11.00
2019-02-28T07:28:38.514Z,75.83
2019-02-28T07:29:46.872Z,121.73
2019-02-28T07:30:55.266Z,28.27
2019-02-28T07:32:03.822Z,22.57
2019-02-28T07:33:11.873Z,29.27
2019-02-28T07:34:23.798Z,13.80
2019-02-28T07:35:34.208Z,21.87
2019-02-28T07:36:41.470Z,96.60
2019-02-28T07:37:53.202Z,94.80
2019-02-28T07:39:01.290Z,24.93
2019-02-28T07:40:16.281Z,20.00
2019-02-28T07:41:26.461Z,42.33
2019-02-28T07:42:33.702Z,71.40
2019-02-28T07:43:45.909Z,134.80
2019-02-28T07:44:53.697Z,109.30
2019-02-28T07:46:04.499Z,70.30
2019-02-28T07:47:16.998Z,40.33
2019-02-28T07:48:26.399Z,68.10
2019-02-28T07:49:35.566Z,95.00
2019-02-28T07:50:43.584Z,142.03
2019-02-28T07:51:51.262Z,107.50
2019-02-28T07:52:59.781Z,103.87
2019-02-28T07:54:08.440Z,77.13
2019-02-28T07:55:21.557Z,45.63
2019-02-28T07:56:29.796Z,13.70
2019-02-28T07:57:38.213Z,36.10
2019-02-28T07:58:46.346Z,92.73
2019-02-28T07:59:54.715Z,98.57
2019-02-28T08:01:02.951Z,106.20
2019-02-28T08:02:11.322Z,49.70
2019-02-28T08:03:19.833Z,51.50
2019-02-28T08:04:27.910Z,52.37
2019-02-28T08:05:35.924Z,8.37
2019-02-28T08:06:43.860Z,75.63
2019-02-28T08:07:52.714Z,82.13
2019-02-28T08:09:01.791Z,17.67
2019-02-28T08:10:29.904Z,10.90
2019-02-28T08:11:37.918Z,27.47
2019-02-28T08:12:46.013Z,136.83
2019-02-28T08:13:55.545Z,157.13
2019-02-28T08:15:04.665Z,166.43
2019-02-28T08:16:12.789Z,153.03
2019-02-28T08:17:20.799Z,171.20
2019-02-28T08:18:28.953Z,113.70
2019-02-28T08:19:36.898Z,94.53
2019-02-28T08:20:45.006Z,186.17
2019-02-28T08:21:53.280Z,197.83
2019-02-28T08:23:01.369Z,107.17
2019-02-28T08:24:09.799Z,102.33
2019-02-28T08:25:18.462Z,94.83
2019-02-28T08:26:26.462Z,33.93
2019-02-28T08:27:34.680Z,31.57
2019-02-28T08:28:43.163Z,85.63
2019-02-28T08:29:51.251Z,81.57
2019-02-28T08:30:59.674Z,12.17
2019-02-28T08:32:08.219Z,20.83
2019-02-28T08:33:17.173Z,102.60
2019-02-28T08:34:25.390Z,80.53
2019-02-28T08:35:34.975Z,113.03
2019-02-28T08:36:43.823Z,251.77
2019-02-28T08:37:57.153Z,262.43
2019-02-28T08:39:02.798Z,136.33
2019-02-28T08:40:16.329Z,144.33
2019-02-28T08:41:25.695Z,175.23
2019-02-28T08:42:38.648Z,168.20
2019-02-28T08:43:44.579Z,223.87
2019-02-28T08:44:58.099Z,185.37
2019-02-28T08:46:09.561Z,104.17
2019-02-28T08:47:13.171Z,40.80
2019-02-28T08:48:21.253Z,37.50
2019-02-28T08:49:29.481Z,75.30
2019-02-28T08:50:37.728Z,144.37
2019-02-28T08:51:46.020Z,283.57
2019-02-28T08:53:03.796Z,327.70
2019-02-28T08:54:11.750Z,111.33
2019-02-28T08:55:28.144Z,130.93
2019-02-28T08:56:29.710Z,75.13
2019-02-28T08:57:37.918Z,65.57
2019-02-28T08:58:45.882Z,113.13
2019-02-28T08:59:56.114Z,157.63
2019-02-28T09:01:06.533Z,56.70
2019-02-28T09:02:18.320Z,65.73
2019-02-28T09:03:27.423Z,127.33
2019-02-28T09:04:41.025Z,135.40
2019-02-28T09:05:44.677Z,113.57
2019-02-28T09:06:53.090Z,120.70
2019-02-28T09:08:01.584Z,108.00
2019-02-28T09:09:12.149Z,119.80
2019-02-28T09:10:23.215Z,143.67
2019-02-28T09:11:31.311Z,163.50
2019-02-28T09:12:39.581Z,158.50
2019-02-28T09:13:47.668Z,209.33
2019-02-28T09:14:56.342Z,166.57
2019-02-28T09:16:05.548Z,65.83
2019-02-28T09:17:15.528Z,32.37
2019-02-28T09:18:23.698Z,26.10
2019-02-28T09:19:32.638Z,22.47
2019-02-28T09:20:45.107Z,86.67
2019-02-28T09:21:52.885Z,82.13
2019-02-28T09:23:02.186Z,140.57
2019-02-28T09:24:12.696Z,194.17
2019-02-28T09:25:26.948Z,60.23
2019-02-28T09:26:35.309Z,109.10
2019-02-28T09:27:43.783Z,86.90
2019-02-28T09:28:51.838Z,86.03
2019-02-28T09:29:59.989Z,108.03
2019-02-28T09:31:08.283Z,101.17
2019-02-28T09:32:17.620Z,148.77
2019-02-28T09:33:25.905Z,71.77
2019-02-28T09:34:34.190Z,17.93
2019-02-28T09:35:45.328Z,29.87
2019-02-28T09:36:55.220Z,77.97
2019-02-28T09:38:06.425Z,67.50
2019-02-28T09:39:11.961Z,29.27
2019-02-28T09:40:20.303Z,66.97
2019-02-28T09:41:28.399Z,80.67
2019-02-28T09:42:36.650Z,121.20
2019-02-28T09:43:44.839Z,115.80
2019-02-28T09:44:53.200Z,169.33
2019-02-28T09:46:01.410Z,138.00
2019-02-28T09:47:11.716Z,23.70
2019-02-28T09:48:19.682Z,110.37
2019-02-28T09:49:27.903Z,139.23
2019-02-28T09:50:35.872Z,152.47
2019-02-28T09:51:44.170Z,94.87
2019-02-28T09:52:52.494Z,138.43
2019-02-28T09:54:00.579Z,78.07
2019-02-28T09:55:10.820Z,25.67
2019-02-28T09:56:19.474Z,11.60
2019-02-28T09:57:27.698Z,26.53
2019-02-28T09:58:35.779Z,21.27
2019-02-28T09:59:43.897Z,28.67
2019-02-28T10:00:51.885Z,102.30
2019-02-28T10:02:01.823Z,241.67
2019-02-28T10:03:10.071Z,90.80
2019-02-28T10:04:18.452Z,12.63
2019-02-28T10:05:26.942Z,25.50
2019-02-28T10:06:35.297Z,23.17
2019-02-28T10:07:43.306Z,28.97
2019-02-28T10:08:51.282Z,113.10
2019-02-28T10:09:59.352Z,75.00
2019-02-28T10:11:07.448Z,19.00
2019-02-28T10:12:15.623Z,19.17
2019-02-28T10:13:23.725Z,21.83
2019-02-28T10:14:31.944Z,17.10
2019-02-28T10:15:41.740Z,29.60
2019-02-28T10:16:52.650Z,83.97
2019-02-28T10:18:00.732Z,144.17
2019-02-28T10:19:10.247Z,117.83
2019-02-28T10:20:40.193Z,151.87
2019-02-28T10:21:52.148Z,154.73
2019-02-28T10:22:58.637Z,142.47
2019-02-28T10:24:06.914Z,53.47
2019-02-28T10:25:16.599Z,20.23
2019-02-28T10:26:25.141Z,97.10
2019-02-28T10:27:33.269Z,84.13
2019-02-28T10:28:41.838Z,48.10
2019-02-28T10:29:50.216Z,67.13
2019-02-28T10:30:58.579Z,86.47
2019-02-28T10:32:09.000Z,46.23
2019-02-28T10:33:17.349Z,39.30
2019-02-28T10:34:27.250Z,19.60
2019-02-28T10:35:36.740Z,22.83
2019-02-28T10:36:47.963Z,45.63
2019-02-28T10:37:58.550Z,87.53
2019-02-28T10:39:08.865Z,81.57
2019-02-28T10:40:25.853Z,26.03
2019-02-28T10:41:33.811Z,25.93
2019-02-28T10:42:41.838Z,24.77
2019-02-28T10:43:52.243Z,30.13
2019-02-28T10:45:00.009Z,73.97
2019-02-28T10:46:08.242Z,54.27
2019-02-28T10:47:16.623Z,25.63
2019-02-28T10:48:24.977Z,21.83
2019-02-28T10:49:33.043Z,33.43
2019-02-28T10:50:41.759Z,10.97
2019-02-28T10:51:50.442Z,33.80
2019-02-28T10:53:04.213Z,83.00
2019-02-28T10:54:11.234Z,41.77
2019-02-28T10:55:22.204Z,14.37
2019-02-28T10:56:32.049Z,23.00
2019-02-28T10:57:40.622Z,26.73
2019-02-28T10:58:50.076Z,70.37
2019-02-28T10:59:59.434Z,222.17
2019-02-28T11:01:10.598Z,210.90
2019-02-28T11:02:20.678Z,206.10
2019-02-28T11:03:32.428Z,221.23
2019-02-28T11:04:42.887Z,111.10
2019-02-28T11:05:53.344Z,82.40
2019-02-28T11:07:02.219Z,109.20
2019-02-28T11:08:13.677Z,59.93
2019-02-28T11:09:25.252Z,41.27
2019-02-28T11:10:41.297Z,14.90
2019-02-28T11:11:49.408Z,29.23
2019-02-28T11:12:57.925Z,83.90
2019-02-28T11:14:06.381Z,80.43
2019-02-28T11:15:15.582Z,30.33
2019-02-28T11:16:24.549Z,24.53
2019-02-28T11:17:34.157Z,15.93
2019-02-28T11:18:42.799Z,16.20
2019-02-28T11:19:51.987Z,56.47
2019-02-28T11:21:00.950Z,81.40
2019-02-28T11:22:09.305Z,75.80
2019-02-28T11:23:18.002Z,17.53
2019-02-28T11:24:28.057Z,16.57
2019-02-28T11:25:36.491Z,16.07
2019-02-28T11:26:45.597Z,93.20
2019-02-28T11:27:54.678Z,156.23
2019-02-28T11:29:03.904Z,230.47
2019-02-28T11:30:28.037Z,160.53
2019-02-28T11:31:36.264Z,60.07
2019-02-28T11:32:44.716Z,12.73
2019-02-28T11:33:53.058Z,29.93
2019-02-28T11:35:01.246Z,84.07
2019-02-28T11:36:09.349Z,77.63
2019-02-28T11:37:17.984Z,32.63
2019-02-28T11:38:25.944Z,23.63
2019-02-28T11:39:33.961Z,19.83
2019-02-28T11:40:43.907Z,16.17
2019-02-28T11:41:52.650Z,15.60
2019-02-28T11:43:04.114Z,64.17
2019-02-28T11:44:12.938Z,41.90
2019-02-28T11:45:30.906Z,25.53
2019-02-28T11:46:38.993Z,16.33
2019-02-28T11:47:49.087Z,20.17
2019-02-28T11:48:57.046Z,71.13
2019-02-28T11:50:07.825Z,76.83
2019-02-28T11:51:17.621Z,43.00
2019-02-28T11:52:27.362Z,107.77
2019-02-28T11:53:39.328Z,89.63
2019-02-28T11:54:45.873Z,197.10
2019-02-28T11:55:54.482Z,129.67
2019-02-28T11:57:04.425Z,89.30
2019-02-28T11:58:16.284Z,55.53
2019-02-28T11:59:24.106Z,21.70
2019-02-28T12:00:38.503Z,18.43
2019-02-28T12:01:48.344Z,15.93
2019-02-28T12:03:00.776Z,42.10
2019-02-28T12:04:06.994Z,83.80
2019-02-28T12:05:15.692Z,115.43
2019-02-28T12:06:25.766Z,18.20
2019-02-28T12:07:34.890Z,12.57
2019-02-28T12:08:45.015Z,13.33
2019-02-28T12:09:54.768Z,18.83
2019-02-28T12:11:04.065Z,92.47
2019-02-28T12:12:12.397Z,70.80
2019-02-28T12:13:20.750Z,23.57
2019-02-28T12:14:30.015Z,18.53
2019-02-28T12:15:40.739Z,15.10
2019-02-28T12:16:52.711Z,12.70
2019-02-28T12:18:03.626Z,60.03
2019-02-28T12:19:08.507Z,69.00
2019-02-28T12:20:16.987Z,28.23
2019-02-28T12:21:25.147Z,35.30
2019-02-28T12:22:33.232Z,14.13
2019-02-28T12:23:41.305Z,9.97
2019-02-28T12:24:49.695Z,11.83
2019-02-28T12:25:57.997Z,33.13
2019-02-28T12:27:06.332Z,65.23
2019-02-28T12:28:14.634Z,45.63
2019-02-28T12:29:22.880Z,17.67
2019-02-28T12:30:35.242Z,9.17
2019-02-28T12:31:43.351Z,16.63
2019-02-28T12:32:52.589Z,16.17
2019-02-28T12:34:00.861Z,77.63
2019-02-28T12:35:09.689Z,80.83
2019-02-28T12:36:17.617Z,16.67
2019-02-28T12:37:25.609Z,21.93
2019-02-28T12:38:33.930Z,27.23
2019-02-28T12:39:41.896Z,22.43
2019-02-28T12:40:49.950Z,17.40
2019-02-28T12:41:59.577Z,27.13
2019-02-28T12:43:10.496Z,70.00
2019-02-28T12:44:18.440Z,37.40
2019-02-28T12:45:33.091Z,16.97
2019-02-28T12:46:41.215Z,12.70
2019-02-28T12:47:49.435Z,26.90
2019-02-28T12:48:57.528Z,49.60
2019-02-28T12:50:09.806Z,116.80
2019-02-28T12:51:18.318Z,23.47
2019-02-28T12:52:27.034Z,13.63
2019-02-28T12:53:35.710Z,12.67
2019-02-28T12:54:43.753Z,8.10
2019-02-28T12:55:52.021Z,15.37
2019-02-28T12:57:00.256Z,28.30
2019-02-28T12:58:08.468Z,68.13
2019-02-28T12:59:16.756Z,41.10
2019-02-28T13:00:34.290Z,12.00
2019-02-28T13:01:42.241Z,14.17
2019-02-28T13:02:50.297Z,13.70
2019-02-28T13:04:00.653Z,18.57
2019-02-28T13:05:14.810Z,87.70
2019-02-28T13:06:23.849Z,20.50
2019-02-28T13:07:33.860Z,25.02
2019-02-28T13:08:42.383Z,22.33
2019-02-28T13:09:51.547Z,14.93
2019-02-28T13:11:04.531Z,58.70
2019-02-28T13:12:12.125Z,77.47
2019-02-28T13:13:23.239Z,29.37
2019-02-28T13:14:31.249Z,26.80
2019-02-28T13:15:39.394Z,15.03
2019-02-28T13:16:47.387Z,9.90
2019-02-28T13:17:55.911Z,12.33
2019-02-28T13:19:04.719Z,49.00
2019-02-28T13:20:18.534Z,79.50
2019-02-28T13:21:26.651Z,12.53
2019-02-28T13:22:36.400Z,25.70
2019-02-28T13:23:44.799Z,21.77
2019-02-28T13:24:53.109Z,14.13
2019-02-28T13:26:01.437Z,22.43
2019-02-28T13:27:10.874Z,54.67
2019-02-28T13:28:22.418Z,42.57
2019-02-28T13:29:32.509Z,14.27
2019-02-28T13:30:40.155Z,20.73
2019-02-28T13:31:48.865Z,25.17
2019-02-28T13:32:57.567Z,18.93
2019-02-28T13:34:05.987Z,66.73
2019-02-28T13:35:21.389Z,70.23
2019-02-28T13:36:29.843Z,16.00
2019-02-28T13:37:40.760Z,29.53
2019-02-28T13:38:54.864Z,17.93
2019-02-28T13:40:00.324Z,10.67
2019-02-28T13:41:08.860Z,78.72
2019-02-28T13:42:16.987Z,66.73
2019-02-28T13:43:32.836Z,18.43
2019-02-28T13:44:41.548Z,17.93
2019-02-28T13:45:50.774Z,17.30
2019-02-28T13:47:00.582Z,12.13
2019-02-28T13:48:09.890Z,64.37
2019-02-28T13:49:18.594Z,64.87
2019-02-28T13:50:34.529Z,21.90
2019-02-28T13:51:43.397Z,17.10
2019-02-28T13:52:52.585Z,16.13
2019-02-28T13:54:03.034Z,15.50
2019-02-28T13:55:18.942Z,71.67
2019-02-28T13:56:24.774Z,23.30
2019-02-28T13:57:33.272Z,14.90
2019-02-28T13:58:41.636Z,13.07
2019-02-28T13:59:49.968Z,18.63
2019-02-28T14:00:58.831Z,10.63
2019-02-28T14:02:07.574Z,43.80
2019-02-28T14:03:17.107Z,53.67
2019-02-28T14:04:35.451Z,17.63
2019-02-28T14:05:43.694Z,28.50
2019-02-28T14:06:55.797Z,27.07
2019-02-28T14:08:09.807Z,37.83
2019-02-28T14:09:18.868Z,63.63
2019-02-28T14:10:29.530Z,10.63
2019-02-28T14:11:37.127Z,14.43
2019-02-28T14:12:45.544Z,12.17
2019-02-28T14:13:53.660Z,18.47
2019-02-28T14:15:01.837Z,9.67
2019-02-28T14:16:10.702Z,66.30
2019-02-28T14:17:19.021Z,54.30
2019-02-28T14:18:31.252Z,26.27
2019-02-28T14:19:40.000Z,13.70
2019-02-28T14:20:49.497Z,15.57
2019-02-28T14:21:57.803Z,8.30
2019-02-28T14:23:08.006Z,18.40
2019-02-28T14:24:16.660Z,49.17
2019-02-28T14:25:25.504Z,18.97
2019-02-28T14:26:42.401Z,8.53
2019-02-28T14:27:43.920Z,24.83
2019-02-28T14:28:52.110Z,10.17
2019-02-28T14:30:00.235Z,9.33
2019-02-28T14:31:08.350Z,39.27
2019-02-28T14:32:16.622Z,41.07
2019-02-28T14:33:25.110Z,30.03
2019-02-28T14:34:33.008Z,9.37